Time;durP1;ratioP1;P1;durP2;ratioP2;P2;SDS_P1;SDS_P2;PMS_P1;PMS_P2;Temp;Humidity;BMP_temperature;BMP_pressure;BME280_temperature;BME280_humidity;BME280_pressure;Samples;Min_cycle;Max_cycle;Signal;HPM_P1;HPM_P2
2021/03/14 00:00:38;;;;;;;0.75;0.52;;;10.40;99.90;;;;;;5095080;28;20044;-82
2021/03/14 00:03:09;;;;;;;1.27;0.63;;;10.40;99.90;;;;;;5094325;28;20557;-82
2021/03/14 00:05:37;;;;;;;1.17;0.52;;;10.40;99.90;;;;;;5094265;28;20484;-82
2021/03/14 00:08:04;;;;;;;2.15;0.60;;;10.40;99.90;;;;;;5094804;28;20016;-82
2021/03/14 00:10:30;;;;;;;1.38;0.43;;;10.50;99.90;;;;;;5094511;28;20476;-82
2021/03/14 00:12:56;;;;;;;2.47;0.52;;;10.40;99.90;;;;;;5094614;28;20024;-82
2021/03/14 00:15:22;;;;;;;0.95;0.50;;;10.40;99.90;;;;;;5094832;28;20016;-82
2021/03/14 00:17:48;;;;;;;1.60;0.80;;;10.40;99.90;;;;;;5094489;28;20020;-82
2021/03/14 00:20:14;;;;;;;1.52;0.60;;;10.40;99.90;;;;;;5094583;28;20027;-82
2021/03/14 00:22:39;;;;;;;1.77;0.90;;;10.50;99.90;;;;;;5094703;28;20103;-82
2021/03/14 00:25:09;;;;;;;3.10;0.73;;;10.50;99.90;;;;;;5094019;28;20468;-82
2021/03/14 00:27:35;;;;;;;2.55;0.80;;;10.50;99.90;;;;;;5094647;28;20029;-82
2021/03/14 00:30:01;;;;;;;2.83;0.90;;;10.50;99.90;;;;;;5094419;28;20039;-82
2021/03/14 00:32:27;;;;;;;3.47;0.80;;;10.50;99.90;;;;;;5093970;28;20111;-82
2021/03/14 00:34:52;;;;;;;3.58;1.00;;;10.50;99.90;;;;;;5094111;28;20154;-82
2021/03/14 00:37:18;;;;;;;1.00;0.60;;;10.40;99.90;;;;;;5094433;28;20056;-82
2021/03/14 00:39:44;;;;;;;0.88;0.60;;;8.70;99.90;;;;;;5093980;28;20511;-83
2021/03/14 00:42:09;;;;;;;2.03;0.60;;;7.90;99.90;;;;;;5094066;28;20030;-83
2021/03/14 00:44:35;;;;;;;1.77;0.60;;;7.60;99.90;;;;;;5094206;28;20020;-83
2021/03/14 00:47:01;;;;;;;0.75;0.50;;;7.80;99.90;;;;;;5093942;28;20021;-83
2021/03/14 00:49:26;;;;;;;0.73;0.40;;;7.20;99.90;;;;;;5093856;28;20036;-83
2021/03/14 00:51:52;;;;;;;1.40;0.55;;;7.60;99.90;;;;;;5093947;28;20148;-83
2021/03/14 00:54:18;;;;;;;0.88;0.40;;;7.50;99.90;;;;;;5093944;28;20360;-83
2021/03/14 00:56:43;;;;;;;0.93;0.40;;;7.30;99.90;;;;;;5094007;28;20464;-83
2021/03/14 00:59:11;;;;;;;0.65;0.40;;;7.70;99.90;;;;;;5093737;28;20036;-83
2021/03/14 01:01:37;;;;;;;1.45;0.52;;;7.60;99.90;;;;;;5094071;28;20032;-83
2021/03/14 01:04:03;;;;;;;2.55;0.50;;;7.60;99.90;;;;;;5092858;28;20055;-82
2021/03/14 01:06:29;;;;;;;1.10;0.40;;;7.50;99.90;;;;;;5093388;28;20118;-82
2021/03/14 01:08:54;;;;;;;1.25;0.32;;;7.90;99.90;;;;;;5093525;28;20099;-82
2021/03/14 01:11:20;;;;;;;0.65;0.38;;;7.60;99.90;;;;;;5094030;28;20048;-82
2021/03/14 01:13:46;;;;;;;2.50;0.60;;;7.80;99.90;;;;;;5093603;28;20552;-82
2021/03/14 01:16:12;;;;;;;1.40;0.90;;;7.60;99.90;;;;;;5093373;28;20032;-82
2021/03/14 01:18:38;;;;;;;4.57;2.30;;;7.70;99.90;;;;;;5093244;28;20078;-82
2021/03/14 01:21:04;;;;;;;4.10;2.85;;;7.70;99.90;;;;;;5093269;28;20020;-82
2021/03/14 01:23:30;;;;;;;3.50;2.50;;;7.80;99.90;;;;;;5075094;28;20027;-82
2021/03/14 01:25:56;;;;;;;5.05;3.10;;;7.90;99.90;;;;;;5093350;28;20024;-82
2021/03/14 01:28:21;;;;;;;5.45;3.60;;;7.90;99.90;;;;;;5075059;28;20020;-82
2021/03/14 01:30:47;;;;;;;5.70;3.83;;;7.90;99.90;;;;;;5093429;28;20027;-82
2021/03/14 01:33:13;;;;;;;7.03;4.55;;;8.40;99.90;;;;;;5092303;28;20016;-82
2021/03/14 01:35:38;;;;;;;8.38;5.00;;;8.00;99.90;;;;;;5075035;28;20030;-82
2021/03/14 01:38:04;;;;;;;8.68;4.32;;;8.10;99.90;;;;;;5092987;28;20020;-82
2021/03/14 01:40:30;;;;;;;5.55;3.80;;;8.10;99.90;;;;;;5093092;28;20032;-82
2021/03/14 01:42:56;;;;;;;9.15;5.05;;;8.10;99.90;;;;;;5085412;28;20048;-82
2021/03/14 01:45:23;;;;;;;7.28;4.30;;;8.10;99.90;;;;;;5072733;28;20016;-82
2021/03/14 01:47:53;;;;;;;6.10;3.63;;;8.10;99.90;;;;;;5082100;28;20361;-82
2021/03/14 01:50:22;;;;;;;5.10;3.70;;;8.20;99.90;;;;;;5092898;28;20028;-82
2021/03/14 01:52:49;;;;;;;4.57;3.50;;;8.20;99.90;;;;;;5092698;28;20052;-82
2021/03/14 01:55:16;;;;;;;4.60;2.75;;;8.20;99.90;;;;;;5081422;28;20032;-82
2021/03/14 01:57:43;;;;;;;4.15;2.83;;;8.10;99.90;;;;;;5072719;28;20035;-82
2021/03/14 02:00:12;;;;;;;1.83;1.40;;;8.40;99.90;;;;;;5072465;28;20033;-82
2021/03/14 02:02:38;;;;;;;3.42;1.77;;;8.10;99.90;;;;;;5054378;28;20068;-82
2021/03/14 02:05:07;;;;;;;3.33;1.75;;;8.20;99.90;;;;;;5072435;28;20017;-82
2021/03/14 02:07:33;;;;;;;1.52;1.20;;;8.00;99.90;;;;;;5072676;28;20056;-82
2021/03/14 02:09:59;;;;;;;1.98;1.08;;;7.90;99.90;;;;;;5072640;28;20020;-82
2021/03/14 02:12:27;;;;;;;2.35;1.20;;;8.30;99.90;;;;;;5072388;28;20016;-82
2021/03/14 02:14:58;;;;;;;2.40;1.20;;;7.80;99.90;;;;;;5072566;28;20024;-82
2021/03/14 02:17:29;;;;;;;1.58;1.00;;;7.70;99.90;;;;;;5084049;28;20535;-82
2021/03/14 02:20:15;;;;;;;1.67;1.02;;;7.60;99.90;;;;;;5092287;28;20024;-82
2021/03/14 02:22:42;;;;;;;2.28;1.10;;;7.50;99.90;;;;;;5092583;28;20020;-82
2021/03/14 02:25:13;;;;;;;1.23;1.00;;;7.40;99.90;;;;;;5092313;28;20055;-82
2021/03/14 02:27:41;;;;;;;1.85;1.00;;;7.30;99.90;;;;;;5092597;28;20020;-82
2021/03/14 02:30:09;;;;;;;2.00;0.88;;;7.50;99.90;;;;;;5092563;28;20123;-82
2021/03/14 02:32:35;;;;;;;1.20;0.70;;;7.20;99.90;;;;;;5092003;28;20028;-82
2021/03/14 02:35:03;;;;;;;0.50;0.50;;;7.30;99.90;;;;;;5091816;28;20039;-82
2021/03/14 02:37:30;;;;;;;0.90;0.55;;;7.40;99.90;;;;;;5092431;28;20401;-82
2021/03/14 02:39:56;;;;;;;1.27;0.40;;;7.60;99.90;;;;;;5092319;28;20028;-82
2021/03/14 02:42:25;;;;;;;1.35;0.50;;;7.10;99.90;;;;;;5092623;28;20020;-82
2021/03/14 02:44:53;;;;;;;2.20;0.60;;;7.50;99.90;;;;;;5092469;28;20068;-82
2021/03/14 02:47:20;;;;;;;2.10;0.77;;;7.10;99.90;;;;;;5091600;28;20076;-82
2021/03/14 02:49:48;;;;;;;2.08;0.80;;;7.50;99.90;;;;;;5092235;28;20035;-82
2021/03/14 02:52:14;;;;;;;1.83;0.60;;;7.60;99.90;;;;;;5092351;28;20046;-82
2021/03/14 02:54:41;;;;;;;0.90;0.50;;;7.30;99.90;;;;;;5092383;28;20028;-82
2021/03/14 02:57:08;;;;;;;1.30;0.52;;;7.80;99.90;;;;;;5092209;28;20479;-82
2021/03/14 02:59:35;;;;;;;3.40;0.60;;;7.70;99.90;;;;;;5092114;28;20023;-82
2021/03/14 03:02:02;;;;;;;1.08;0.57;;;7.90;99.90;;;;;;5092180;28;20050;-82
2021/03/14 03:04:28;;;;;;;2.50;0.60;;;7.70;99.90;;;;;;5091621;28;20056;-82
2021/03/14 03:06:55;;;;;;;3.70;0.60;;;8.00;99.90;;;;;;5094278;28;20016;-82
2021/03/14 03:09:21;;;;;;;2.28;0.70;;;7.90;99.90;;;;;;5096013;28;20055;-82
2021/03/14 03:11:55;;;;;;;1.80;0.47;;;8.30;99.90;;;;;;5096074;28;20035;-82
2021/03/14 03:14:29;;;;;;;1.15;0.32;;;8.10;99.90;;;;;;5095822;28;20028;-82
2021/03/14 03:16:55;;;;;;;0.50;0.40;;;8.10;99.90;;;;;;5095242;28;20096;-82
2021/03/14 03:19:22;;;;;;;0.30;0.30;;;7.90;99.90;;;;;;5095399;28;20111;-82
2021/03/14 03:21:48;;;;;;;0.70;0.50;;;7.70;99.90;;;;;;5077616;28;20024;-82
2021/03/14 03:24:14;;;;;;;0.40;0.40;;;8.00;99.90;;;;;;5095725;28;20103;-82
2021/03/14 03:26:43;;;;;;;1.35;0.50;;;7.80;99.90;;;;;;5095671;28;20020;-82
2021/03/14 03:29:09;;;;;;;0.68;0.20;;;7.50;99.90;;;;;;5095662;28;20028;-82
2021/03/14 03:31:36;;;;;;;0.38;0.20;;;7.50;99.90;;;;;;5095124;28;20077;-82
2021/03/14 03:34:03;;;;;;;0.35;0.30;;;7.50;99.90;;;;;;5087295;28;20044;-82
2021/03/14 03:36:29;;;;;;;0.25;0.25;;;7.40;99.90;;;;;;5075231;28;20024;-82
2021/03/14 03:38:54;;;;;;;0.70;0.40;;;7.80;99.90;;;;;;5075128;28;20032;-82
2021/03/14 03:41:21;;;;;;;0.60;0.40;;;7.20;99.90;;;;;;5075093;28;20124;-82
2021/03/14 03:43:48;;;;;;;0.60;0.40;;;7.40;99.90;;;;;;5074997;28;20455;-81
2021/03/14 03:46:15;;;;;;;0.40;0.20;;;7.30;99.90;;;;;;5090398;28;20498;-81
2021/03/14 03:48:55;;;;;;;0.57;0.50;;;7.20;99.90;;;;;;5095153;28;20020;-82
2021/03/14 03:51:23;;;;;;;0.60;0.30;;;7.30;99.90;;;;;;5095281;28;20048;-82
2021/03/14 03:53:50;;;;;;;0.85;0.57;;;7.10;99.90;;;;;;5095209;28;20495;-82
2021/03/14 03:56:16;;;;;;;0.20;0.20;;;7.40;99.90;;;;;;5095081;28;20418;-82
2021/03/14 03:58:44;;;;;;;0.50;0.50;;;7.10;99.90;;;;;;5094899;28;20028;-82
2021/03/14 04:01:11;;;;;;;0.57;0.20;;;7.10;99.90;;;;;;5094657;28;20028;-82
2021/03/14 04:03:40;;;;;;;0.20;0.20;;;7.20;99.90;;;;;;5094658;28;20101;-82
2021/03/14 04:06:07;;;;;;;0.30;0.30;;;7.10;99.90;;;;;;5095058;28;20384;-82
2021/03/14 04:08:34;;;;;;;1.10;0.30;;;6.90;99.90;;;;;;5094874;28;20047;-82
2021/03/14 04:11:04;;;;;;;0.50;0.40;;;6.80;99.90;;;;;;5094984;28;20020;-82
2021/03/14 04:13:32;;;;;;;0.20;0.20;;;6.60;99.90;;;;;;5094910;28;20105;-82
2021/03/14 04:15:58;;;;;;;1.33;0.30;;;6.40;99.90;;;;;;5093889;28;20028;-82
2021/03/14 04:18:25;;;;;;;0.52;0.38;;;6.40;99.90;;;;;;5094063;28;20031;-82
2021/03/14 04:20:52;;;;;;;1.38;0.40;;;6.00;99.90;;;;;;5094953;28;20023;-82
2021/03/14 04:23:21;;;;;;;1.17;0.22;;;6.50;99.90;;;;;;5094737;28;20373;-82
2021/03/14 04:25:51;;;;;;;1.05;0.30;;;6.00;99.90;;;;;;5094661;28;20016;-82
2021/03/14 04:28:17;;;;;;;0.15;0.13;;;6.10;99.90;;;;;;5094547;28;20057;-82
2021/03/14 04:30:43;;;;;;;0.22;0.20;;;6.50;99.90;;;;;;5093624;28;20024;-82
2021/03/14 04:33:10;;;;;;;0.35;0.35;;;6.00;99.90;;;;;;5094256;28;20073;-82
2021/03/14 04:35:38;;;;;;;1.55;0.40;;;6.00;99.90;;;;;;5094405;28;20048;-82
2021/03/14 04:38:06;;;;;;;0.70;0.50;;;6.00;99.90;;;;;;5094553;28;20059;-82
2021/03/14 04:40:32;;;;;;;0.70;0.60;;;6.10;99.90;;;;;;5094019;28;20111;-82
2021/03/14 04:42:58;;;;;;;0.82;0.60;;;5.90;99.90;;;;;;5094170;28;20032;-82
2021/03/14 04:45:25;;;;;;;1.10;0.60;;;6.10;99.90;;;;;;5093357;28;20428;-82
2021/03/14 04:47:51;;;;;;;0.50;0.50;;;6.00;99.90;;;;;;5094140;28;20031;-82
2021/03/14 04:50:21;;;;;;;1.17;0.47;;;6.10;99.90;;;;;;5094134;28;20032;-82
2021/03/14 04:52:50;;;;;;;1.20;0.60;;;6.30;99.90;;;;;;5093878;28;20499;-82
2021/03/14 04:55:17;;;;;;;0.60;0.50;;;6.60;99.90;;;;;;5093996;28;20028;-81
2021/03/14 04:57:43;;;;;;;1.33;0.60;;;6.50;99.90;;;;;;5093836;28;20472;-81
2021/03/14 05:00:11;;;;;;;1.52;0.60;;;6.90;99.90;;;;;;5093471;28;20032;-81
2021/03/14 05:02:43;;;;;;;0.80;0.80;;;6.60;99.90;;;;;;5092863;28;20035;-82
2021/03/14 05:05:11;;;;;;;0.88;0.60;;;6.60;99.90;;;;;;5093667;28;20016;-82
2021/03/14 05:07:38;;;;;;;0.73;0.73;;;6.60;99.90;;;;;;5093718;28;20032;-82
2021/03/14 05:10:10;;;;;;;0.63;0.63;;;6.90;99.90;;;;;;5093807;28;20035;-82
2021/03/14 05:12:39;;;;;;;0.73;0.73;;;6.60;99.90;;;;;;5093702;28;20038;-82
2021/03/14 05:15:05;;;;;;;1.50;0.95;;;6.60;99.90;;;;;;5093276;28;20031;-82
2021/03/14 05:17:33;;;;;;;0.80;0.80;;;6.50;99.90;;;;;;5093386;28;20028;-82
2021/03/14 05:19:58;;;;;;;1.00;0.80;;;6.50;99.90;;;;;;5093541;28;20020;-82
2021/03/14 05:22:25;;;;;;;1.65;0.90;;;6.90;99.90;;;;;;5093354;28;20484;-82
2021/03/14 05:24:51;;;;;;;0.70;0.70;;;6.80;99.90;;;;;;5093461;28;20020;-82
2021/03/14 05:27:18;;;;;;;2.00;0.75;;;6.50;99.90;;;;;;5093346;28;20078;-82
2021/03/14 05:29:47;;;;;;;0.80;0.80;;;6.60;99.90;;;;;;5091487;28;20062;-82
2021/03/14 05:32:12;;;;;;;1.02;0.70;;;6.70;99.90;;;;;;5093350;28;20039;-82
2021/03/14 05:34:38;;;;;;;0.80;0.70;;;6.70;99.90;;;;;;5092993;28;20025;-82
2021/03/14 05:37:04;;;;;;;1.23;0.88;;;6.70;99.90;;;;;;5093195;28;20066;-82
2021/03/14 05:39:30;;;;;;;1.05;0.93;;;6.60;99.90;;;;;;5093180;28;20069;-82
2021/03/14 05:41:56;;;;;;;1.60;1.50;;;6.50;99.90;;;;;;5074909;28;20031;-82
2021/03/14 05:44:22;;;;;;;1.98;1.40;;;6.50;99.90;;;;;;5092580;28;20132;-82
2021/03/14 05:46:48;;;;;;;1.88;1.10;;;6.80;99.90;;;;;;5074918;28;20031;-82
2021/03/14 05:49:13;;;;;;;1.15;1.05;;;7.10;99.90;;;;;;5092972;28;20024;-82
2021/03/14 05:51:44;;;;;;;1.95;1.45;;;6.90;99.90;;;;;;5092962;28;20399;-82
2021/03/14 05:54:12;;;;;;;5.32;2.70;;;6.90;99.90;;;;;;5092928;28;20426;-82
2021/03/14 05:56:41;;;;;;;1.60;1.20;;;6.90;99.90;;;;;;5092835;28;20090;-82
2021/03/14 05:59:09;;;;;;;1.02;0.90;;;7.10;99.90;;;;;;5091794;28;20116;-82
2021/03/14 06:01:35;;;;;;;1.30;1.13;;;6.70;99.90;;;;;;5075394;28;20367;-82
2021/03/14 06:04:01;;;;;;;2.00;1.40;;;6.70;99.90;;;;;;5072365;28;20123;-82
2021/03/14 06:06:27;;;;;;;1.48;1.10;;;6.70;99.90;;;;;;5072443;28;20108;-82
2021/03/14 06:08:55;;;;;;;1.30;0.90;;;6.70;99.90;;;;;;5072460;28;20100;-82
2021/03/14 06:11:20;;;;;;;1.20;1.10;;;7.00;99.90;;;;;;5072611;28;20463;-82
2021/03/14 06:13:46;;;;;;;2.15;1.00;;;6.70;99.90;;;;;;5084407;28;20063;-82
2021/03/14 06:16:12;;;;;;;2.88;1.23;;;6.90;99.90;;;;;;5092744;28;20028;-81
2021/03/14 06:18:38;;;;;;;1.35;1.13;;;6.70;99.90;;;;;;5092316;28;20048;-82
2021/03/14 06:21:19;;;;;;;1.90;1.00;;;6.90;99.90;;;;;;5092767;28;20070;-82
2021/03/14 06:24:05;;;;;;;1.38;1.25;;;7.30;99.90;;;;;;5092078;28;20020;-82
2021/03/14 06:26:56;;;;;;;1.70;1.30;;;7.20;99.90;;;;;;5074087;28;20024;-82
2021/03/14 06:29:25;;;;;;;1.42;1.10;;;7.20;99.90;;;;;;5083070;28;20024;-82
2021/03/14 06:31:59;;;;;;;1.35;1.10;;;7.60;99.90;;;;;;5086968;28;20027;-81
2021/03/14 06:34:26;;;;;;;2.70;1.10;;;6.80;99.90;;;;;;5091868;28;20252;-81
2021/03/14 06:36:52;;;;;;;1.77;0.98;;;6.90;99.90;;;;;;5074594;28;20029;-81
2021/03/14 06:39:23;;;;;;;1.38;0.85;;;7.30;99.90;;;;;;5071890;28;20116;-81
2021/03/14 06:41:49;;;;;;;1.63;1.00;;;7.00;99.90;;;;;;5078150;28;20020;-81
2021/03/14 06:44:23;;;;;;;1.92;1.30;;;7.50;99.90;;;;;;5096350;28;20499;-82
2021/03/14 06:46:49;;;;;;;2.17;1.50;;;7.40;99.90;;;;;;5095886;28;20052;-82
2021/03/14 06:49:17;;;;;;;1.77;1.40;;;6.90;99.90;;;;;;5095688;28;20066;-81
2021/03/14 06:51:45;;;;;;;2.80;1.55;;;7.30;99.90;;;;;;5095514;28;20024;-81
2021/03/14 06:54:18;;;;;;;3.67;1.58;;;7.30;99.90;;;;;;5095694;28;20031;-81
2021/03/14 06:57:06;;;;;;;2.80;1.90;;;7.00;99.90;;;;;;5094144;28;20028;-81
2021/03/14 06:59:36;;;;;;;2.50;1.55;;;7.30;99.90;;;;;;5095236;28;20056;-81
2021/03/14 07:02:10;;;;;;;1.42;1.33;;;7.90;99.90;;;;;;5095976;28;20103;-81
2021/03/14 07:04:48;;;;;;;3.40;1.85;;;7.70;99.90;;;;;;5095737;28;20081;-82
2021/03/14 07:07:25;;;;;;;3.45;1.88;;;7.70;99.90;;;;;;5088420;28;20032;-81
2021/03/14 07:09:58;;;;;;;1.98;1.58;;;7.70;99.90;;;;;;5083460;28;20032;-81
2021/03/14 07:12:27;;;;;;;3.22;1.88;;;7.80;99.90;;;;;;5090817;28;20031;-81
2021/03/14 07:14:53;;;;;;;2.17;1.70;;;7.70;99.90;;;;;;5084881;28;20024;-81
2021/03/14 07:17:33;;;;;;;2.28;1.23;;;7.80;99.90;;;;;;5081049;28;20035;-81
2021/03/14 07:20:04;;;;;;;2.03;1.30;;;7.80;99.90;;;;;;5076782;28;20032;-81
2021/03/14 07:22:30;;;;;;;1.75;1.20;;;7.70;99.90;;;;;;5086233;28;20024;-82
2021/03/14 07:24:56;;;;;;;3.22;1.15;;;7.80;99.90;;;;;;5086350;28;20510;-81
2021/03/14 07:27:29;;;;;;;1.50;1.30;;;7.70;99.90;;;;;;5087926;28;20105;-81
2021/03/14 07:29:56;;;;;;;1.80;1.58;;;7.60;99.90;;;;;;5080752;28;20024;-81
2021/03/14 07:32:22;;;;;;;2.30;1.90;;;7.70;99.90;;;;;;5089555;28;20091;-81
2021/03/14 07:34:48;;;;;;;6.25;1.65;;;8.10;99.90;;;;;;5094685;28;20043;-81
2021/03/14 07:37:15;;;;;;;4.00;1.45;;;8.10;99.90;;;;;;5080958;28;20058;-81
2021/03/14 07:39:42;;;;;;;2.83;1.50;;;8.20;99.90;;;;;;5095042;28;20024;-81
2021/03/14 07:42:10;;;;;;;2.00;1.50;;;8.10;99.90;;;;;;5093555;28;20020;-82
2021/03/14 07:44:36;;;;;;;2.38;1.45;;;8.20;99.90;;;;;;5092164;28;20040;-81
2021/03/14 07:47:03;;;;;;;2.92;1.50;;;8.40;99.90;;;;;;5094394;28;20039;-83
2021/03/14 07:49:29;;;;;;;2.00;1.23;;;8.40;99.90;;;;;;5096176;28;20376;-81
2021/03/14 07:51:57;;;;;;;1.92;1.20;;;8.40;99.90;;;;;;5094911;28;20046;-81
2021/03/14 07:54:24;;;;;;;3.88;1.33;;;8.20;99.90;;;;;;5075116;28;20076;-81
2021/03/14 07:56:54;;;;;;;2.05;1.20;;;8.30;99.90;;;;;;5088602;28;20491;-81
2021/03/14 07:59:27;;;;;;;2.83;1.63;;;8.40;99.90;;;;;;5094558;28;20027;-82
2021/03/14 08:01:53;;;;;;;3.13;1.50;;;8.40;99.90;;;;;;5079788;28;20032;-82
2021/03/14 08:04:30;;;;;;;2.20;1.38;;;8.40;99.90;;;;;;5094138;28;20044;-79
2021/03/14 08:06:55;;;;;;;4.05;1.60;;;8.50;99.90;;;;;;5094919;28;20081;-79
2021/03/14 08:09:43;;;;;;;2.33;1.60;;;8.40;99.90;;;;;;5093258;28;20028;-79
2021/03/14 08:12:17;;;;;;;2.72;1.30;;;8.70;99.90;;;;;;5093802;28;20384;-83
2021/03/14 08:14:44;;;;;;;3.92;1.77;;;9.10;99.90;;;;;;5076376;28;20032;-79
2021/03/14 08:17:21;;;;;;;3.97;1.55;;;9.30;99.90;;;;;;5092713;28;20024;-80
2021/03/14 08:19:47;;;;;;;4.22;1.35;;;9.30;99.90;;;;;;5093796;28;20031;-80
2021/03/14 08:22:38;;;;;;;3.20;1.60;;;9.30;99.90;;;;;;5094244;28;20031;-79
2021/03/14 08:25:25;;;;;;;3.17;1.63;;;9.10;99.90;;;;;;5094583;28;20085;-79
2021/03/14 08:27:55;;;;;;;2.30;1.30;;;9.30;99.90;;;;;;5094764;28;20086;-80
2021/03/14 08:30:30;;;;;;;4.03;1.50;;;9.50;99.90;;;;;;5094348;28;20024;-79
2021/03/14 08:33:17;;;;;;;2.55;1.75;;;9.40;99.90;;;;;;5093742;28;20028;-80
2021/03/14 08:35:55;;;;;;;4.88;2.17;;;9.40;99.90;;;;;;5086572;28;20024;-80
2021/03/14 08:38:35;;;;;;;4.07;1.98;;;9.40;99.90;;;;;;5076973;28;20039;-80
2021/03/14 08:41:17;;;;;;;3.85;1.63;;;9.40;99.90;;;;;;5094446;28;20035;-80
2021/03/14 08:43:43;;;;;;;5.90;2.35;;;9.40;99.90;;;;;;5094506;28;20495;-80
2021/03/14 08:46:10;;;;;;;7.18;2.10;;;9.20;99.90;;;;;;5092974;28;20020;-80
2021/03/14 08:48:36;;;;;;;3.47;1.90;;;9.20;99.90;;;;;;5093536;28;20025;-80
2021/03/14 08:51:05;;;;;;;6.57;2.03;;;9.40;99.90;;;;;;5094098;28;20020;-79
2021/03/14 08:53:32;;;;;;;4.53;1.95;;;8.80;99.90;;;;;;5093595;28;20077;-85
2021/03/14 08:55:59;;;;;;;5.05;1.90;;;9.20;99.90;;;;;;5093999;28;20031;-80
2021/03/14 08:58:25;;;;;;;5.95;1.90;;;8.70;99.90;;;;;;5093815;28;20361;-80
2021/03/14 09:01:11;;;;;;;4.40;1.85;;;8.60;99.90;;;;;;5093874;28;20046;-80
2021/03/14 09:03:44;;;;;;;7.20;1.70;;;8.90;99.90;;;;;;5092917;28;20044;-80
2021/03/14 09:06:26;;;;;;;4.75;1.52;;;9.30;99.90;;;;;;5093540;28;20074;-80
2021/03/14 09:08:58;;;;;;;5.95;1.83;;;9.10;99.90;;;;;;5093711;28;20022;-80
2021/03/14 09:11:57;;;;;;;5.15;1.90;;;9.10;99.90;;;;;;5093697;28;20451;-82
2021/03/14 09:14:27;;;;;;;5.30;1.35;;;9.20;99.90;;;;;;5093488;28;20030;-84
2021/03/14 09:17:02;;;;;;;4.07;1.42;;;9.10;99.90;;;;;;5093616;28;20036;-79
2021/03/14 09:19:34;;;;;;;5.03;1.70;;;8.80;99.90;;;;;;5093443;28;20036;-79
2021/03/14 09:22:08;;;;;;;6.72;1.75;;;9.00;99.90;;;;;;5093187;28;20028;-81
2021/03/14 09:24:37;;;;;;;3.95;1.48;;;9.10;99.90;;;;;;5093296;28;20031;-80
2021/03/14 09:27:09;;;;;;;7.85;2.15;;;9.20;99.90;;;;;;5093373;28;20016;-80
2021/03/14 09:29:40;;;;;;;6.05;1.80;;;9.30;99.90;;;;;;5093346;28;20518;-80
2021/03/14 09:32:24;;;;;;;4.82;1.50;;;9.70;99.90;;;;;;5093042;28;20032;-80
2021/03/14 09:35:08;;;;;;;8.82;2.33;;;10.10;99.90;;;;;;5092296;28;20024;-80
2021/03/14 09:37:33;;;;;;;7.88;2.13;;;10.30;99.90;;;;;;5093170;28;20030;-80
2021/03/14 09:40:16;;;;;;;6.38;2.05;;;10.90;99.90;;;;;;5074553;28;20020;-80
2021/03/14 09:42:43;;;;;;;5.50;2.00;;;11.60;99.90;;;;;;5093146;28;20104;-80
2021/03/14 09:45:21;;;;;;;6.47;1.73;;;10.70;99.90;;;;;;5092982;28;20057;-80
2021/03/14 09:48:02;;;;;;;6.18;1.60;;;10.90;99.90;;;;;;5093122;28;20021;-80
2021/03/14 09:50:29;;;;;;;7.75;1.42;;;11.00;99.90;;;;;;5092397;28;20028;-80
2021/03/14 09:53:02;;;;;;;6.78;2.00;;;9.90;99.90;;;;;;5092975;28;20028;-80
2021/03/14 09:55:31;;;;;;;9.57;2.35;;;9.90;99.90;;;;;;5080916;28;20081;-81
2021/03/14 09:57:58;;;;;;;8.18;1.90;;;9.90;99.90;;;;;;5092807;28;20031;-80
2021/03/14 10:00:29;;;;;;;10.23;1.80;;;9.80;99.90;;;;;;5088121;28;20039;-80
2021/03/14 10:03:01;;;;;;;7.15;2.00;;;10.20;99.90;;;;;;5091873;28;20047;-80
2021/03/14 10:05:34;;;;;;;9.60;1.83;;;10.50;99.90;;;;;;5074859;28;20489;-80
2021/03/14 10:07:59;;;;;;;8.70;1.88;;;10.30;99.90;;;;;;5093506;28;20030;-80
2021/03/14 10:10:25;;;;;;;10.32;1.80;;;10.80;99.90;;;;;;5092986;28;20379;-81
2021/03/14 10:12:52;;;;;;;6.60;1.73;;;11.00;99.90;;;;;;5091755;28;20027;-81
2021/03/14 10:15:18;;;;;;;10.10;1.75;;;11.40;99.90;;;;;;5092142;28;20091;-80
2021/03/14 10:17:45;;;;;;;8.43;2.08;;;12.40;99.90;;;;;;5092653;28;20081;-81
2021/03/14 10:20:11;;;;;;;9.15;2.13;;;12.20;99.90;;;;;;5092314;28;20111;-80
2021/03/14 10:22:37;;;;;;;8.00;1.90;;;11.60;99.90;;;;;;5092409;28;20032;-80
2021/03/14 10:25:05;;;;;;;9.20;1.70;;;11.20;99.90;;;;;;5091410;28;20021;-80
2021/03/14 10:27:31;;;;;;;8.88;2.03;;;10.50;99.90;;;;;;5092366;28;20024;-80
2021/03/14 10:29:58;;;;;;;7.43;1.88;;;10.00;99.90;;;;;;5092500;28;20035;-80
2021/03/14 10:32:26;;;;;;;8.15;1.80;;;10.10;99.90;;;;;;5092474;28;20030;-80
2021/03/14 10:35:01;;;;;;;5.57;1.70;;;10.00;99.90;;;;;;5091968;28;20028;-80
2021/03/14 10:37:37;;;;;;;9.23;2.03;;;9.90;99.90;;;;;;5092394;28;20024;-80
2021/03/14 10:40:09;;;;;;;10.48;3.03;;;9.70;99.90;;;;;;5082819;28;20108;-79
2021/03/14 10:42:38;;;;;;;11.15;3.30;;;9.30;99.90;;;;;;5072038;28;20496;-80
2021/03/14 10:45:08;;;;;;;7.57;2.00;;;9.30;99.90;;;;;;5072181;28;20071;-80
2021/03/14 10:47:34;;;;;;;9.32;2.50;;;8.90;99.90;;;;;;5054295;28;20034;-80
2021/03/14 10:50:20;;;;;;;8.43;4.53;;;9.10;99.90;;;;;;5072077;28;20099;-80
2021/03/14 10:53:15;;;;;;;5.93;2.42;;;8.80;99.90;;;;;;5071945;28;20024;-80
2021/03/14 10:55:43;;;;;;;9.15;2.38;;;9.20;99.90;;;;;;5085790;28;20032;-80
2021/03/14 10:58:08;;;;;;;6.95;2.22;;;9.10;99.90;;;;;;5086345;28;20028;-80
2021/03/14 11:00:36;;;;;;;7.82;1.98;;;9.10;99.90;;;;;;5091937;28;20035;-82
2021/03/14 11:03:10;;;;;;;6.40;2.00;;;9.40;99.90;;;;;;5082716;28;20526;-85
2021/03/14 11:05:36;;;;;;;8.35;2.20;;;9.80;99.90;;;;;;5089783;28;20016;-83
2021/03/14 11:08:03;;;;;;;9.18;2.05;;;9.90;99.90;;;;;;5084718;28;20111;-81
2021/03/14 11:10:29;;;;;;;9.18;4.22;;;10.20;99.90;;;;;;5087482;28;20028;-82
2021/03/14 11:12:54;;;;;;;8.00;2.63;;;10.50;99.90;;;;;;5072182;28;20028;-80
2021/03/14 11:15:27;;;;;;;13.20;2.58;;;10.50;99.90;;;;;;5071823;28;20499;-82
2021/03/14 11:17:54;;;;;;;6.90;1.63;;;10.60;99.90;;;;;;5076561;28;20544;-83
2021/03/14 11:20:21;;;;;;;8.93;2.45;;;10.60;99.90;;;;;;5091924;28;20016;-79
2021/03/14 11:22:55;;;;;;;8.82;1.75;;;10.60;99.90;;;;;;5091613;28;20077;-80
2021/03/14 11:25:22;;;;;;;6.43;2.00;;;10.40;99.90;;;;;;5090599;28;20559;-79
2021/03/14 11:27:48;;;;;;;11.43;2.05;;;10.40;99.90;;;;;;5092705;28;20020;-80
2021/03/14 11:30:16;;;;;;;9.30;1.65;;;10.40;99.90;;;;;;5095554;28;20391;-81
2021/03/14 11:32:42;;;;;;;8.95;2.28;;;10.30;99.90;;;;;;5094964;28;20020;-79
2021/03/14 11:35:09;;;;;;;6.07;1.60;;;10.10;99.90;;;;;;5081569;28;20522;-83
2021/03/14 11:37:35;;;;;;;7.50;1.77;;;10.40;99.90;;;;;;5088980;28;20024;-80
2021/03/14 11:40:03;;;;;;;8.95;2.28;;;10.60;99.90;;;;;;5083370;28;20028;-81
2021/03/14 11:42:28;;;;;;;8.05;2.38;;;11.00;99.90;;;;;;5095046;28;20032;-80
2021/03/14 11:44:55;;;;;;;8.85;1.83;;;12.10;99.90;;;;;;5078493;28;20073;-80
2021/03/14 11:47:22;;;;;;;7.50;2.03;;;12.10;99.90;;;;;;5084302;28;20052;-79
2021/03/14 11:49:48;;;;;;;7.50;2.10;;;12.20;99.90;;;;;;5095610;28;20455;-82
2021/03/14 11:52:14;;;;;;;5.72;1.90;;;13.20;99.90;;;;;;5092334;28;20048;-82
2021/03/14 11:54:39;;;;;;;6.40;2.08;;;16.50;99.90;;;;;;5092715;28;20060;-80
2021/03/14 11:57:05;;;;;;;6.32;1.80;;;19.40;99.90;;;;;;5086063;28;20035;-86
2021/03/14 11:59:31;;;;;;;6.50;2.13;;;21.00;99.90;;;;;;5062034;28;20027;-83
2021/03/14 12:01:57;;;;;;;6.40;2.00;;;20.40;99.90;;;;;;5094930;28;20027;-85
2021/03/14 12:04:22;;;;;;;6.95;1.95;;;18.90;99.90;;;;;;5094159;28;20043;-83
2021/03/14 12:06:48;;;;;;;6.63;2.20;;;17.60;99.90;;;;;;5095097;28;20020;-88
2021/03/14 12:09:14;;;;;;;10.25;2.22;;;16.00;99.90;;;;;;5094441;28;20047;-81
2021/03/14 12:11:41;;;;;;;11.15;2.83;;;14.50;99.90;;;;;;5093732;28;20464;-83
2021/03/14 12:14:08;;;;;;;7.00;3.00;;;16.10;99.90;;;;;;5091763;28;20070;-82
2021/03/14 12:16:33;;;;;;;6.90;2.25;;;17.70;99.90;;;;;;5086265;28;20460;-83
2021/03/14 12:18:59;;;;;;;7.88;2.80;;;16.60;99.90;;;;;;5094467;28;20024;-82
2021/03/14 12:21:26;;;;;;;10.55;2.55;;;16.00;99.90;;;;;;5094123;28;20078;-84
2021/03/14 12:23:51;;;;;;;8.20;2.35;;;15.60;99.90;;;;;;5084054;28;20027;-84
2021/03/14 12:26:17;;;;;;;8.25;2.60;;;14.80;99.90;;;;;;5092119;28;20016;-83
2021/03/14 12:28:43;;;;;;;8.63;2.72;;;14.40;99.90;;;;;;5094119;28;20061;-86
2021/03/14 12:31:08;;;;;;;7.05;1.90;;;13.80;99.90;;;;;;5076383;28;20028;-85
2021/03/14 12:33:34;;;;;;;10.50;2.72;;;14.10;99.90;;;;;;5092260;28;20016;-86
2021/03/14 12:36:00;;;;;;;7.07;2.60;;;15.50;99.90;;;;;;5093122;28;20020;-83
2021/03/14 12:38:26;;;;;;;9.55;2.55;;;15.70;99.90;;;;;;5091212;28;20095;-82
2021/03/14 12:40:53;;;;;;;6.80;1.98;;;18.60;99.90;;;;;;5086479;28;20733;-84
2021/03/14 12:43:20;;;;;;;6.60;2.03;;;18.40;99.90;;;;;;5083395;28;20031;-84
2021/03/14 12:45:49;;;;;;;7.93;2.00;;;16.20;99.90;;;;;;5093929;28;20056;-84
2021/03/14 12:48:14;;;;;;;6.75;2.30;;;15.70;99.90;;;;;;5093817;28;20012;-82
2021/03/14 12:50:40;;;;;;;8.05;2.20;;;15.40;99.90;;;;;;5092875;28;20040;-83
2021/03/14 12:53:05;;;;;;;7.57;2.30;;;16.90;99.90;;;;;;5094151;28;20020;-85
2021/03/14 12:55:31;;;;;;;7.45;2.55;;;15.90;99.90;;;;;;5090737;28;20024;-82
2021/03/14 12:57:57;;;;;;;8.73;2.22;;;15.70;99.90;;;;;;5078767;28;20028;-82
2021/03/14 13:00:23;;;;;;;6.97;2.05;;;14.80;99.90;;;;;;5083141;28;20081;-81